Time;durP1;ratioP1;P1;durP2;ratioP2;P2;SDS_P1;SDS_P2;PMS_P1;PMS_P2;Temp;Humidity;BMP_temperature;BMP_pressure;BME280_temperature;BME280_humidity;BME280_pressure;Samples;Min_cycle;Max_cycle;Signal;HPM_P1;HPM_P2
2023/09/13 00:00:59;;;;;;;6.38;3.40;;;;;;;;;;2580530;23;20008;-89
2023/09/13 00:01:59;;;;;;;6.78;3.35;;;;;;;;;;2594029;22;20430;-88
2023/09/13 00:03:00;;;;;;;8.45;4.00;;;;;;;;;;2593932;22;20341;-89
2023/09/13 00:04:00;;;;;;;5.97;3.55;;;;;;;;;;2592838;22;20346;-89
2023/09/13 00:05:02;;;;;;;6.10;3.80;;;;;;;;;;2593237;22;20000;-89
2023/09/13 00:06:02;;;;;;;5.93;3.42;;;;;;;;;;2597859;22;20050;-89
2023/09/13 00:07:03;;;;;;;5.13;3.10;;;;;;;;;;2598265;22;20064;-89
2023/09/13 00:08:04;;;;;;;5.03;3.47;;;;;;;;;;2598719;22;20471;-89
2023/09/13 00:09:06;;;;;;;5.22;2.70;;;;;;;;;;2589290;23;20484;-88
2023/09/13 00:10:07;;;;;;;7.65;3.50;;;;;;;;;;2596368;22;20007;-88
2023/09/13 00:11:07;;;;;;;7.00;3.20;;;;;;;;;;2609937;22;20057;-88
2023/09/13 00:12:08;;;;;;;4.35;3.10;;;;;;;;;;2600685;22;20053;-88
2023/09/13 00:13:09;;;;;;;4.53;3.33;;;;;;;;;;2580478;23;20004;-88
2023/09/13 00:14:09;;;;;;;6.28;3.33;;;;;;;;;;2584259;23;20261;-87
2023/09/13 00:15:09;;;;;;;4.35;2.97;;;;;;;;;;2597566;22;20019;-88
2023/09/13 00:16:11;;;;;;;4.00;2.35;;;;;;;;;;2580351;23;20473;-88
2023/09/13 00:17:11;;;;;;;4.13;2.58;;;;;;;;;;2579894;23;19996;-88
2023/09/13 00:18:15;;;;;;;4.68;3.25;;;;;;;;;;2583506;23;19999;-88
2023/09/13 00:19:16;;;;;;;5.30;3.08;;;;;;;;;;2592804;22;20023;-88
2023/09/13 00:20:17;;;;;;;5.90;3.20;;;;;;;;;;2580121;23;20083;-88
2023/09/13 00:21:17;;;;;;;6.35;2.80;;;;;;;;;;2567237;23;20062;-88
2023/09/13 00:22:18;;;;;;;3.55;3.22;;;;;;;;;;2567173;23;20001;-88
2023/09/13 00:23:19;;;;;;;3.80;2.50;;;;;;;;;;2583142;23;19992;-88
2023/09/13 00:24:19;;;;;;;5.15;2.85;;;;;;;;;;2580244;23;20400;-88
2023/09/13 00:25:19;;;;;;;4.60;3.05;;;;;;;;;;2580034;23;20012;-88
2023/09/13 00:26:20;;;;;;;5.18;2.85;;;;;;;;;;2595769;22;20362;-88
2023/09/13 00:27:20;;;;;;;6.22;3.50;;;;;;;;;;2592652;22;20023;-88
2023/09/13 00:28:21;;;;;;;4.93;2.70;;;;;;;;;;2595805;22;20011;-88
2023/09/13 00:29:21;;;;;;;3.42;2.78;;;;;;;;;;2596485;22;20452;-88
2023/09/13 00:30:21;;;;;;;4.40;2.47;;;;;;;;;;2580052;23;20022;-88
2023/09/13 00:31:22;;;;;;;4.40;2.90;;;;;;;;;;2567399;23;20008;-88
2023/09/13 00:32:22;;;;;;;5.68;3.03;;;;;;;;;;2582791;23;20008;-88
2023/09/13 00:33:23;;;;;;;3.88;3.08;;;;;;;;;;2596944;22;20027;-88
2023/09/13 00:34:24;;;;;;;3.28;2.60;;;;;;;;;;2592733;22;20004;-89
2023/09/13 00:35:24;;;;;;;3.65;3.15;;;;;;;;;;2595549;22;20061;-89
2023/09/13 00:36:24;;;;;;;4.47;3.03;;;;;;;;;;2580000;23;20042;-89
2023/09/13 00:37:25;;;;;;;4.57;2.70;;;;;;;;;;2582802;23;20465;-89
2023/09/13 00:38:25;;;;;;;5.07;3.30;;;;;;;;;;2580339;23;20031;-89
2023/09/13 00:39:25;;;;;;;3.28;2.60;;;;;;;;;;2567418;23;20035;-89
2023/09/13 00:40:26;;;;;;;4.47;3.05;;;;;;;;;;2583009;23;20479;-89
2023/09/13 00:41:26;;;;;;;4.65;2.92;;;;;;;;;;2580161;23;20034;-89
2023/09/13 00:42:28;;;;;;;5.30;3.20;;;;;;;;;;2579973;23;20000;-89
2023/09/13 00:43:28;;;;;;;6.25;3.15;;;;;;;;;;2580010;23;20007;-89
2023/09/13 00:44:29;;;;;;;5.25;3.53;;;;;;;;;;2567663;23;20367;-89
2023/09/13 00:45:32;;;;;;;5.90;3.13;;;;;;;;;;2582318;23;19999;-89
2023/09/13 00:46:33;;;;;;;4.68;2.67;;;;;;;;;;2595757;22;20007;-89
2023/09/13 00:47:34;;;;;;;3.72;3.33;;;;;;;;;;2595758;22;20327;-89
2023/09/13 00:48:35;;;;;;;6.07;3.50;;;;;;;;;;2580186;23;20008;-89
2023/09/13 00:49:35;;;;;;;4.25;2.90;;;;;;;;;;2582461;23;20347;-89
2023/09/13 00:50:37;;;;;;;4.72;3.28;;;;;;;;;;2595712;22;20061;-89
2023/09/13 00:51:37;;;;;;;8.98;2.65;;;;;;;;;;2595683;22;20003;-89
2023/09/13 00:52:39;;;;;;;5.75;3.05;;;;;;;;;;2595566;22;20023;-89
2023/09/13 00:53:40;;;;;;;5.65;3.30;;;;;;;;;;2596190;22;20006;-89
2023/09/13 00:54:41;;;;;;;5.95;3.40;;;;;;;;;;2581044;23;20373;-89
2023/09/13 00:55:42;;;;;;;6.00;3.22;;;;;;;;;;2568324;23;20000;-89
2023/09/13 00:56:42;;;;;;;5.95;3.25;;;;;;;;;;2582229;23;20074;-89
2023/09/13 00:57:44;;;;;;;5.28;3.53;;;;;;;;;;2581452;23;20004;-89
2023/09/13 00:58:47;;;;;;;6.05;3.42;;;;;;;;;;2586091;22;20004;-88
2023/09/13 00:59:48;;;;;;;6.40;3.47;;;;;;;;;;2580913;23;20011;-88
2023/09/13 01:00:53;;;;;;;5.50;3.28;;;;;;;;;;2581141;23;20019;-88
2023/09/13 01:01:53;;;;;;;5.78;3.80;;;;;;;;;;2569083;23;20004;-88
2023/09/13 01:02:54;;;;;;;4.53;3.15;;;;;;;;;;2568282;23;20047;-89
2023/09/13 01:03:57;;;;;;;5.75;3.10;;;;;;;;;;2568578;23;20059;-88
2023/09/13 01:04:57;;;;;;;5.43;3.58;;;;;;;;;;2581970;22;20015;-88
2023/09/13 01:05:59;;;;;;;5.93;3.38;;;;;;;;;;2580910;23;20484;-88
2023/09/13 01:07:00;;;;;;;3.87;3.04;;;;;;;;;;2142048;23;10002428;-88
2023/09/13 01:08:01;;;;;;;3.97;3.40;;;;;;;;;;2581243;22;20087;-88
2023/09/13 01:09:04;;;;;;;4.78;3.10;;;;;;;;;;2595307;22;20065;-88
2023/09/13 01:10:05;;;;;;;7.00;3.10;;;;;;;;;;2598454;22;20433;-88
2023/09/13 01:11:06;;;;;;;5.53;3.22;;;;;;;;;;2580785;23;20504;-88
2023/09/13 01:12:07;;;;;;;4.35;2.90;;;;;;;;;;2568214;23;20083;-89
2023/09/13 01:13:07;;;;;;;4.20;3.08;;;;;;;;;;2580685;23;20204;-88
2023/09/13 01:14:07;;;;;;;5.00;3.42;;;;;;;;;;2584579;23;20106;-88
2023/09/13 01:15:08;;;;;;;5.97;3.25;;;;;;;;;;2597772;22;20433;-88
2023/09/13 01:16:22;;;;;;;5.65;3.30;;;;;;;;;;2580782;23;20000;-88
2023/09/13 01:17:54;;;;;;;4.63;2.88;;;;;;;;;;2586354;22;20000;-88
2023/09/13 01:18:58;;;;;;;5.13;2.83;;;;;;;;;;2570907;22;20086;-89
2023/09/13 01:20:37;;;;;;;5.57;3.22;;;;;;;;;;2582084;22;20362;-88
2023/09/13 01:21:55;;;;;;;4.63;3.63;;;;;;;;;;2596048;22;20003;-89
2023/09/13 01:23:14;;;;;;;4.40;3.35;;;;;;;;;;2594567;22;19995;-88
2023/09/13 01:24:48;;;;;;;4.35;3.35;;;;;;;;;;2580588;23;20442;-88
2023/09/13 01:25:57;;;;;;;5.53;3.38;;;;;;;;;;2589103;22;19996;-88
2023/09/13 01:27:00;;;;;;;4.45;3.38;;;;;;;;;;2580559;23;20437;-88
2023/09/13 01:28:33;;;;;;;4.50;3.50;;;;;;;;;;2581461;22;20018;-89
2023/09/13 01:29:34;;;;;;;4.68;3.65;;;;;;;;;;2596117;22;20433;-88
2023/09/13 01:30:37;;;;;;;5.55;3.60;;;;;;;;;;2580663;23;20042;-88
2023/09/13 01:31:37;;;;;;;5.07;3.33;;;;;;;;;;2582962;22;20517;-88
2023/09/13 01:32:37;;;;;;;8.40;4.43;;;;;;;;;;2593358;22;19992;-88
2023/09/13 01:33:38;;;;;;;8.00;3.80;;;;;;;;;;2580655;23;20035;-88
2023/09/13 01:34:38;;;;;;;3.88;3.03;;;;;;;;;;2582453;23;20060;-88
2023/09/13 01:35:39;;;;;;;4.68;3.47;;;;;;;;;;2593471;22;20004;-88
2023/09/13 01:36:39;;;;;;;3.65;3.20;;;;;;;;;;2595127;22;20120;-88
2023/09/13 01:37:39;;;;;;;4.65;3.72;;;;;;;;;;2596277;22;20408;-89
2023/09/13 01:38:40;;;;;;;3.67;3.30;;;;;;;;;;2593229;22;20011;-88
2023/09/13 01:39:41;;;;;;;3.85;2.85;;;;;;;;;;2580838;23;20012;-89
2023/09/13 01:40:43;;;;;;;3.28;2.90;;;;;;;;;;2580452;23;20060;-88
2023/09/13 01:41:48;;;;;;;4.80;3.03;;;;;;;;;;2581980;22;20468;-88
2023/09/13 01:42:49;;;;;;;3.05;2.72;;;;;;;;;;2595424;22;20066;-88
2023/09/13 01:43:53;;;;;;;5.75;3.33;;;;;;;;;;2580798;23;20016;-88
2023/09/13 01:44:55;;;;;;;6.20;3.08;;;;;;;;;;2568918;23;20035;-89
2023/09/13 01:45:56;;;;;;;3.55;3.10;;;;;;;;;;2581028;23;20083;-88
2023/09/13 01:46:59;;;;;;;3.60;3.25;;;;;;;;;;2593839;22;20081;-88
2023/09/13 01:48:02;;;;;;;4.18;3.20;;;;;;;;;;2580435;23;20019;-88
2023/09/13 01:49:04;;;;;;;6.25;3.30;;;;;;;;;;2568468;23;20062;-88
2023/09/13 01:50:06;;;;;;;4.30;3.28;;;;;;;;;;2584803;22;20163;-88
2023/09/13 01:51:08;;;;;;;6.45;3.75;;;;;;;;;;2580904;23;20066;-88
2023/09/13 01:52:08;;;;;;;6.13;3.45;;;;;;;;;;2568071;23;20353;-88
2023/09/13 01:53:08;;;;;;;4.25;3.47;;;;;;;;;;2584180;23;20078;-88
2023/09/13 01:54:09;;;;;;;5.47;3.75;;;;;;;;;;2597707;22;20019;-88
2023/09/13 01:55:10;;;;;;;5.20;3.50;;;;;;;;;;2580501;23;20047;-88
2023/09/13 01:56:10;;;;;;;4.18;3.78;;;;;;;;;;2580803;23;20409;-89
2023/09/13 01:57:11;;;;;;;6.40;3.85;;;;;;;;;;2596888;22;19999;-88
2023/09/13 01:58:11;;;;;;;5.90;4.28;;;;;;;;;;2580832;23;20474;-88
2023/09/13 01:59:12;;;;;;;5.65;4.07;;;;;;;;;;2584139;23;19996;-89
2023/09/13 02:00:12;;;;;;;5.25;3.72;;;;;;;;;;2580735;23;19992;-89
2023/09/13 02:01:13;;;;;;;6.00;3.67;;;;;;;;;;2567935;23;20000;-88
2023/09/13 02:02:13;;;;;;;5.82;4.32;;;;;;;;;;2584094;23;20071;-88
2023/09/13 02:03:14;;;;;;;4.75;3.83;;;;;;;;;;2593217;22;20007;-88
2023/09/13 02:04:14;;;;;;;6.38;3.97;;;;;;;;;;2596330;22;20049;-88
2023/09/13 02:05:15;;;;;;;5.18;3.90;;;;;;;;;;2580447;23;20457;-88
2023/09/13 02:06:15;;;;;;;4.20;3.53;;;;;;;;;;2580274;23;20405;-88
2023/09/13 02:07:20;;;;;;;4.30;3.85;;;;;;;;;;2583830;23;20477;-89
2023/09/13 02:08:20;;;;;;;4.68;3.70;;;;;;;;;;2597138;22;20023;-88
2023/09/13 02:09:21;;;;;;;5.90;4.00;;;;;;;;;;2580557;23;20386;-88
2023/09/13 02:10:21;;;;;;;5.53;3.92;;;;;;;;;;2567635;23;20023;-89
2023/09/13 02:11:22;;;;;;;5.63;3.88;;;;;;;;;;2583385;23;20422;-89
2023/09/13 02:12:23;;;;;;;6.88;4.28;;;;;;;;;;2580424;23;20517;-89
2023/09/13 02:13:23;;;;;;;4.65;3.78;;;;;;;;;;2583248;23;19992;-90
2023/09/13 02:14:24;;;;;;;4.80;4.30;;;;;;;;;;2580453;23;20055;-89
2023/09/13 02:15:24;;;;;;;4.88;4.18;;;;;;;;;;2580314;23;20425;-89
2023/09/13 02:16:24;;;;;;;5.50;3.83;;;;;;;;;;2593198;22;20094;-88
2023/09/13 02:17:25;;;;;;;5.53;4.03;;;;;;;;;;2583078;23;20050;-87
2023/09/13 02:18:25;;;;;;;5.68;4.43;;;;;;;;;;2596607;22;20000;-89
2023/09/13 02:19:26;;;;;;;4.47;3.47;;;;;;;;;;2580314;23;20434;-89
2023/09/13 02:20:26;;;;;;;5.82;4.38;;;;;;;;;;2567977;23;20361;-89
2023/09/13 02:21:27;;;;;;;4.65;4.22;;;;;;;;;;2582660;23;19996;-89
2023/09/13 02:22:27;;;;;;;5.70;3.83;;;;;;;;;;2580152;23;20004;-89
2023/09/13 02:23:28;;;;;;;4.93;4.18;;;;;;;;;;2567677;23;19999;-88
2023/09/13 02:24:28;;;;;;;5.57;3.67;;;;;;;;;;2582782;23;20294;-89
2023/09/13 02:25:28;;;;;;;4.72;3.75;;;;;;;;;;2596132;22;19991;-89
2023/09/13 02:26:30;;;;;;;5.50;4.15;;;;;;;;;;2580306;23;20004;-89
2023/09/13 02:27:32;;;;;;;6.53;3.63;;;;;;;;;;2568146;23;20094;-88
2023/09/13 02:28:33;;;;;;;5.05;4.55;;;;;;;;;;2580633;23;20132;-89
2023/09/13 02:29:33;;;;;;;5.38;4.20;;;;;;;;;;2568093;23;20042;-88
2023/09/13 02:30:34;;;;;;;6.70;4.72;;;;;;;;;;2582523;23;20347;-89
2023/09/13 02:31:35;;;;;;;4.78;3.78;;;;;;;;;;2596177;22;20000;-89
2023/09/13 02:32:35;;;;;;;6.93;4.38;;;;;;;;;;2592909;22;20008;-89
2023/09/13 02:33:35;;;;;;;5.60;4.20;;;;;;;;;;2580382;23;20003;-89
2023/09/13 02:34:36;;;;;;;4.90;3.60;;;;;;;;;;2580397;23;20087;-88
2023/09/13 02:35:36;;;;;;;5.18;3.70;;;;;;;;;;2568148;23;20345;-88
2023/09/13 02:36:36;;;;;;;5.50;4.10;;;;;;;;;;2568128;23;20070;-88
2023/09/13 02:37:37;;;;;;;3.97;3.45;;;;;;;;;;2592372;23;19996;-87
2023/09/13 02:38:37;;;;;;;5.65;4.00;;;;;;;;;;2606422;22;20000;-88
2023/09/13 02:39:39;;;;;;;4.82;3.80;;;;;;;;;;2591373;23;20000;-88
2023/09/13 02:40:40;;;;;;;5.18;3.78;;;;;;;;;;2586220;23;20000;-88
2023/09/13 02:41:40;;;;;;;6.10;3.78;;;;;;;;;;2583546;23;19992;-87
2023/09/13 02:42:40;;;;;;;6.28;3.42;;;;;;;;;;2596256;22;20489;-89
2023/09/13 02:43:41;;;;;;;4.38;3.97;;;;;;;;;;2595232;22;20125;-89
2023/09/13 02:44:41;;;;;;;7.70;3.78;;;;;;;;;;2595482;22;20042;-89
2023/09/13 02:45:41;;;;;;;5.35;4.28;;;;;;;;;;2595211;22;20372;-89
2023/09/13 02:46:42;;;;;;;7.80;4.30;;;;;;;;;;2595342;22;20011;-89
2023/09/13 02:47:43;;;;;;;7.57;3.97;;;;;;;;;;2594986;22;19992;-89
2023/09/13 02:48:43;;;;;;;5.80;3.90;;;;;;;;;;2595422;22;20008;-89
2023/09/13 02:49:44;;;;;;;5.30;3.75;;;;;;;;;;2595017;22;20000;-89
2023/09/13 02:50:44;;;;;;;6.57;4.05;;;;;;;;;;2595064;22;19999;-89
2023/09/13 02:51:47;;;;;;;4.20;3.45;;;;;;;;;;2593015;22;20042;-89
2023/09/13 02:52:47;;;;;;;6.10;3.97;;;;;;;;;;2580165;23;20286;-89
2023/09/13 02:53:47;;;;;;;6.00;3.75;;;;;;;;;;2581546;23;20003;-89
2023/09/13 02:54:48;;;;;;;5.40;4.05;;;;;;;;;;2580228;23;20531;-89
2023/09/13 02:55:48;;;;;;;5.13;4.00;;;;;;;;;;2564057;23;20001;-89
2023/09/13 02:56:49;;;;;;;4.03;3.60;;;;;;;;;;2576498;23;20031;-89
2023/09/13 02:57:52;;;;;;;8.75;4.88;;;;;;;;;;2593894;22;20480;-89
2023/09/13 02:58:53;;;;;;;4.80;4.03;;;;;;;;;;2594292;22;20004;-89
2023/09/13 02:59:53;;;;;;;7.63;4.35;;;;;;;;;;2580182;23;20478;-89
2023/09/13 03:00:56;;;;;;;4.53;3.35;;;;;;;;;;2581067;23;20422;-89
2023/09/13 03:01:57;;;;;;;8.27;4.45;;;;;;;;;;2580493;23;20014;-89
2023/09/13 03:02:58;;;;;;;5.53;4.60;;;;;;;;;;2567999;23;20390;-89
2023/09/13 03:03:58;;;;;;;6.10;4.15;;;;;;;;;;2580950;23;20008;-89
2023/09/13 03:04:59;;;;;;;7.43;4.50;;;;;;;;;;2594112;22;20438;-89
2023/09/13 03:06:18;;;;;;;5.63;4.28;;;;;;;;;;2594345;22;20046;-89
2023/09/13 03:07:19;;;;;;;6.20;4.50;;;;;;;;;;2596966;22;20303;-89
2023/09/13 03:08:19;;;;;;;5.80;3.95;;;;;;;;;;2580158;23;20418;-89
2023/09/13 03:09:20;;;;;;;6.75;4.20;;;;;;;;;;2127950;23;10266289;-89
2023/09/13 03:10:20;;;;;;;7.43;4.13;;;;;;;;;;2567537;23;19996;-89
2023/09/13 03:11:21;;;;;;;7.32;4.22;;;;;;;;;;2567847;23;20062;-88
2023/09/13 03:12:21;;;;;;;7.43;4.55;;;;;;;;;;2583166;23;20016;-90
2023/09/13 03:13:22;;;;;;;7.32;4.32;;;;;;;;;;2596857;22;20015;-89
2023/09/13 03:14:22;;;;;;;5.45;4.20;;;;;;;;;;2596964;22;20004;-89
2023/09/13 03:15:23;;;;;;;5.95;4.13;;;;;;;;;;2596844;22;20000;-89
2023/09/13 03:16:23;;;;;;;5.68;4.03;;;;;;;;;;2596573;22;20004;-90
2023/09/13 03:17:24;;;;;;;5.70;3.78;;;;;;;;;;2596759;22;20058;-89
2023/09/13 03:18:26;;;;;;;6.43;3.70;;;;;;;;;;2593350;22;20579;-87
2023/09/13 03:19:28;;;;;;;7.85;3.65;;;;;;;;;;2601387;22;19999;-88
2023/09/13 03:20:29;;;;;;;5.32;3.50;;;;;;;;;;2585428;23;20068;-89
2023/09/13 03:21:29;;;;;;;5.28;4.00;;;;;;;;;;2583290;23;20376;-88
2023/09/13 03:22:29;;;;;;;5.25;3.83;;;;;;;;;;2580831;23;20005;-89
2023/09/13 03:23:50;;;;;;;4.35;3.90;;;;;;;;;;2587142;23;20027;-89
2023/09/13 03:24:50;;;;;;;6.25;4.60;;;;;;;;;;2598322;22;20006;-88
2023/09/13 03:25:51;;;;;;;7.55;6.75;;;;;;;;;;2593188;22;20377;-88
2023/09/13 03:26:51;;;;;;;12.57;7.13;;;;;;;;;;2580195;23;20004;-89
2023/09/13 03:27:51;;;;;;;10.18;7.75;;;;;;;;;;2581064;23;20011;-89
2023/09/13 03:28:56;;;;;;;8.35;6.90;;;;;;;;;;2580038;23;20472;-89
2023/09/13 03:29:58;;;;;;;7.28;5.88;;;;;;;;;;2580519;22;20004;-89
2023/09/13 03:30:58;;;;;;;7.18;6.47;;;;;;;;;;2579988;23;20008;-89
2023/09/13 03:31:59;;;;;;;7.35;5.20;;;;;;;;;;2567405;23;20538;-89
2023/09/13 03:32:59;;;;;;;10.73;5.53;;;;;;;;;;2580515;23;20085;-89
2023/09/13 03:33:59;;;;;;;8.02;5.25;;;;;;;;;;2593668;22;20019;-89
2023/09/13 03:35:00;;;;;;;7.55;4.90;;;;;;;;;;2594214;22;20508;-89
2023/09/13 03:36:00;;;;;;;5.65;4.57;;;;;;;;;;2594146;22;20000;-89
2023/09/13 03:37:01;;;;;;;7.40;5.05;;;;;;;;;;2593960;22;20000;-88
2023/09/13 03:38:01;;;;;;;5.60;4.65;;;;;;;;;;2580160;23;20077;-89
2023/09/13 03:39:03;;;;;;;4.35;3.83;;;;;;;;;;2580186;23;20055;-88
2023/09/13 03:40:05;;;;;;;5.30;4.55;;;;;;;;;;2579863;23;20358;-88
2023/09/13 03:41:06;;;;;;;6.70;5.05;;;;;;;;;;2567866;23;19992;-88
2023/09/13 03:42:07;;;;;;;6.75;4.47;;;;;;;;;;2584235;22;20311;-88
2023/09/13 03:43:07;;;;;;;7.75;4.55;;;;;;;;;;2592532;22;20126;-88
2023/09/13 03:44:07;;;;;;;6.78;5.03;;;;;;;;;;2596849;22;20053;-88
2023/09/13 03:45:08;;;;;;;5.35;4.50;;;;;;;;;;2597899;22;20019;-88
2023/09/13 03:46:08;;;;;;;7.30;5.05;;;;;;;;;;2580159;23;19996;-89
2023/09/13 03:47:09;;;;;;;7.53;5.28;;;;;;;;;;2583767;23;20116;-88
2023/09/13 03:48:09;;;;;;;7.57;5.43;;;;;;;;;;2597415;22;19988;-88
2023/09/13 03:49:09;;;;;;;7.95;4.70;;;;;;;;;;2592752;22;19992;-88
2023/09/13 03:50:10;;;;;;;6.63;4.78;;;;;;;;;;2580074;23;20065;-88
2023/09/13 03:51:10;;;;;;;8.05;4.60;;;;;;;;;;2583627;23;20279;-88
2023/09/13 03:52:11;;;;;;;8.25;5.40;;;;;;;;;;2580202;23;20394;-88
2023/09/13 03:53:11;;;;;;;8.65;5.35;;;;;;;;;;2567724;23;20000;-88
2023/09/13 03:54:11;;;;;;;5.65;4.60;;;;;;;;;;2567449;23;20027;-88
2023/09/13 03:55:12;;;;;;;7.00;4.63;;;;;;;;;;2579901;23;19988;-88
2023/09/13 03:56:12;;;;;;;5.75;4.45;;;;;;;;;;2567408;23;20076;-88
2023/09/13 03:57:13;;;;;;;4.65;4.10;;;;;;;;;;2583518;23;19988;-88
2023/09/13 03:58:13;;;;;;;6.13;4.88;;;;;;;;;;2580284;23;20065;-88
2023/09/13 03:59:13;;;;;;;6.93;4.40;;;;;;;;;;2580121;23;20067;-88
2023/09/13 04:00:15;;;;;;;7.20;4.43;;;;;;;;;;2583870;23;20024;-89
2023/09/13 04:01:15;;;;;;;5.47;4.68;;;;;;;;;;2597035;22;20468;-88
2023/09/13 04:02:16;;;;;;;5.25;4.18;;;;;;;;;;2579804;23;19992;-88
2023/09/13 04:03:17;;;;;;;7.50;4.70;;;;;;;;;;2583410;23;19988;-88
2023/09/13 04:04:17;;;;;;;7.88;4.57;;;;;;;;;;2597100;22;19992;-88
2023/09/13 04:05:17;;;;;;;7.30;4.40;;;;;;;;;;2579669;23;20051;-88
2023/09/13 04:06:18;;;;;;;6.20;4.22;;;;;;;;;;2567263;23;20035;-88
2023/09/13 04:07:18;;;;;;;7.40;4.30;;;;;;;;;;2579942;23;19984;-88
2023/09/13 04:08:19;;;;;;;4.68;4.25;;;;;;;;;;2583268;23;20450;-88
2023/09/13 04:09:21;;;;;;;6.47;4.63;;;;;;;;;;2597044;22;19998;-88
2023/09/13 04:10:21;;;;;;;7.40;4.63;;;;;;;;;;2596632;22;20322;-88
2023/09/13 04:11:22;;;;;;;6.93;4.65;;;;;;;;;;2592736;22;20065;-88
2023/09/13 04:12:22;;;;;;;5.05;4.53;;;;;;;;;;2595639;22;20000;-88
2023/09/13 04:13:23;;;;;;;7.53;4.75;;;;;;;;;;2579943;23;20023;-88
2023/09/13 04:14:23;;;;;;;5.90;4.10;;;;;;;;;;2582637;23;20004;-88
2023/09/13 04:15:23;;;;;;;5.53;4.47;;;;;;;;;;2596392;22;20010;-87
2023/09/13 04:16:24;;;;;;;5.15;4.63;;;;;;;;;;2598756;22;20413;-91
2023/09/13 04:17:24;;;;;;;5.55;4.38;;;;;;;;;;2580975;23;20023;-91
2023/09/13 04:18:24;;;;;;;5.07;4.00;;;;;;;;;;2580974;23;20083;-91
2023/09/13 04:19:25;;;;;;;7.70;4.95;;;;;;;;;;2580949;23;20445;-91
2023/09/13 04:20:25;;;;;;;6.45;4.47;;;;;;;;;;2580909;23;20038;-91
2023/09/13 04:21:27;;;;;;;8.55;4.57;;;;;;;;;;2580846;23;20551;-91
2023/09/13 04:22:27;;;;;;;5.25;4.75;;;;;;;;;;2580800;23;20079;-90
2023/09/13 04:23:28;;;;;;;5.32;4.45;;;;;;;;;;2568205;23;20004;-91
2023/09/13 04:24:29;;;;;;;6.95;4.30;;;;;;;;;;2568540;23;20055;-91
2023/09/13 04:25:29;;;;;;;8.23;5.85;;;;;;;;;;2583513;23;20004;-91
2023/09/13 04:26:29;;;;;;;6.07;4.90;;;;;;;;;;2580744;23;20450;-91
2023/09/13 04:27:30;;;;;;;8.82;5.03;;;;;;;;;;2568313;23;20045;-91
2023/09/13 04:28:33;;;;;;;;;;;;;;;;;;2140133;23;10001458;-91
2023/09/13 04:29:33;;;;;;;8.18;4.75;;;;;;;;;;2583924;22;19985;-90
2023/09/13 04:30:34;;;;;;;9.57;4.25;;;;;;;;;;2581053;23;20073;-91
2023/09/13 04:31:34;;;;;;;6.70;4.47;;;;;;;;;;2580925;23;20020;-91
2023/09/13 04:32:35;;;;;;;5.03;4.20;;;;;;;;;;2568169;23;20028;-93
2023/09/13 04:33:53;;;;;;;5.68;4.60;;;;;;;;;;2580795;23;20008;-90
2023/09/13 04:34:54;;;;;;;8.95;4.15;;;;;;;;;;2584492;22;20319;-93
2023/09/13 04:35:54;;;;;;;6.95;4.07;;;;;;;;;;2580817;23;20035;-93
2023/09/13 04:36:54;;;;;;;6.82;4.65;;;;;;;;;;2581686;23;20389;-93
2023/09/13 04:37:55;;;;;;;7.22;4.20;;;;;;;;;;2580853;23;20007;-92
2023/09/13 04:38:55;;;;;;;5.13;3.83;;;;;;;;;;2580695;23;20004;-92
2023/09/13 04:39:57;;;;;;;4.97;4.15;;;;;;;;;;2580914;23;20177;-92
2023/09/13 04:40:57;;;;;;;4.90;4.30;;;;;;;;;;2581089;22;20087;-93
2023/09/13 04:41:58;;;;;;;4.57;4.03;;;;;;;;;;2593300;22;20456;-92
2023/09/13 04:43:05;;;;;;;6.35;4.70;;;;;;;;;;2580640;23;20018;-92
2023/09/13 04:44:05;;;;;;;4.68;4.18;;;;;;;;;;2569188;23;20001;-92
2023/09/13 04:45:06;;;;;;;5.45;3.85;;;;;;;;;;2568385;23;19996;-91
2023/09/13 04:46:07;;;;;;;7.72;4.05;;;;;;;;;;2568123;23;20363;-92
2023/09/13 04:47:07;;;;;;;7.07;4.28;;;;;;;;;;2585426;23;20026;-92
2023/09/13 04:48:10;;;;;;;6.45;3.90;;;;;;;;;;2580747;23;20055;-93
2023/09/13 04:49:14;;;;;;;7.55;4.60;;;;;;;;;;2571972;23;19997;-92
2023/09/13 04:50:17;;;;;;;8.60;5.57;;;;;;;;;;2584688;22;20046;-93
2023/09/13 04:51:18;;;;;;;7.90;5.28;;;;;;;;;;2597300;22;19996;-92
2023/09/13 04:52:18;;;;;;;6.40;4.90;;;;;;;;;;2597691;22;19987;-92
2023/09/13 04:53:18;;;;;;;7.57;5.00;;;;;;;;;;2580754;23;20062;-92
2023/09/13 04:54:22;;;;;;;8.05;5.32;;;;;;;;;;2583714;23;19988;-92
2023/09/13 04:55:23;;;;;;;8.60;5.00;;;;;;;;;;2580627;23;20008;-92
2023/09/13 04:56:23;;;;;;;8.95;4.90;;;;;;;;;;2580479;23;20004;-92
2023/09/13 04:57:24;;;;;;;5.47;4.60;;;;;;;;;;2568084;23;20001;-92
2023/09/13 04:58:24;;;;;;;9.05;4.80;;;;;;;;;;2568100;23;20005;-93
2023/09/13 04:59:41;;;;;;;5.38;4.50;;;;;;;;;;2583257;23;20474;-93
2023/09/13 05:00:42;;;;;;;8.57;4.72;;;;;;;;;;2580643;23;20036;-92
2023/09/13 05:01:43;;;;;;;7.38;5.07;;;;;;;;;;2568124;23;20439;-92
2023/09/13 05:02:43;;;;;;;8.07;4.70;;;;;;;;;;2568069;23;20104;-93
2023/09/13 05:03:45;;;;;;;9.40;5.00;;;;;;;;;;2582269;23;20004;-93
2023/09/13 05:04:46;;;;;;;7.30;5.07;;;;;;;;;;2581046;23;20423;-93
2023/09/13 05:05:47;;;;;;;5.55;4.50;;;;;;;;;;2568674;23;20092;-92
2023/09/13 05:06:47;;;;;;;9.15;4.63;;;;;;;;;;2582220;23;20095;-92
2023/09/13 05:07:48;;;;;;;7.07;5.10;;;;;;;;;;2595628;22;20007;-92
2023/09/13 05:08:52;;;;;;;6.03;4.78;;;;;;;;;;2593909;22;20008;-92
2023/09/13 05:09:52;;;;;;;7.50;5.03;;;;;;;;;;2594666;22;20400;-93
2023/09/13 05:10:54;;;;;;;7.22;5.07;;;;;;;;;;2595377;22;20004;-92
2023/09/13 05:11:54;;;;;;;7.13;5.30;;;;;;;;;;2595542;22;20000;-92
2023/09/13 05:12:55;;;;;;;8.45;4.75;;;;;;;;;;2593395;22;20035;-92
2023/09/13 05:14:11;;;;;;;8.48;4.72;;;;;;;;;;2594563;22;20031;-93
2023/09/13 05:15:12;;;;;;;7.65;4.78;;;;;;;;;;2581184;23;19996;-92
2023/09/13 05:16:12;;;;;;;6.40;4.63;;;;;;;;;;2584278;23;20030;-92
2023/09/13 05:17:13;;;;;;;8.13;5.22;;;;;;;;;;2593610;22;20012;-93
2023/09/13 05:18:13;;;;;;;8.02;5.30;;;;;;;;;;2597172;22;19992;-92
2023/09/13 05:19:13;;;;;;;7.63;4.97;;;;;;;;;;2597654;22;19991;-93
2023/09/13 05:20:14;;;;;;;8.65;5.47;;;;;;;;;;2580997;23;20024;-90
2023/09/13 05:21:14;;;;;;;13.43;5.43;;;;;;;;;;2580883;23;19992;-92
2023/09/13 05:22:15;;;;;;;7.13;4.95;;;;;;;;;;2568357;23;20043;-91
2023/09/13 05:23:15;;;;;;;8.43;5.20;;;;;;;;;;2588382;23;20000;-92
2023/09/13 05:24:15;;;;;;;7.30;5.22;;;;;;;;;;2580884;23;19984;-90
2023/09/13 05:25:16;;;;;;;6.25;4.80;;;;;;;;;;2580639;23;20028;-90
2023/09/13 05:26:16;;;;;;;7.95;5.28;;;;;;;;;;2577795;23;20406;-90
2023/09/13 05:27:16;;;;;;;6.32;5.47;;;;;;;;;;2569204;23;20003;-91
2023/09/13 05:28:17;;;;;;;6.80;5.28;;;;;;;;;;2568653;23;20346;-91
2023/09/13 05:29:17;;;;;;;8.60;5.57;;;;;;;;;;2581021;23;20015;-91
2023/09/13 05:30:18;;;;;;;8.55;5.53;;;;;;;;;;2593744;22;19984;-91
2023/09/13 05:31:19;;;;;;;10.18;5.75;;;;;;;;;;2581159;23;20019;-90
2023/09/13 05:32:20;;;;;;;7.32;5.60;;;;;;;;;;2583815;22;19996;-93
2023/09/13 05:33:20;;;;;;;10.45;6.05;;;;;;;;;;2580423;23;19992;-92
2023/09/13 05:34:20;;;;;;;9.73;6.10;;;;;;;;;;2580836;23;19992;-92
2023/09/13 05:35:21;;;;;;;8.38;5.22;;;;;;;;;;2580456;23;20115;-92
2023/09/13 05:36:21;;;;;;;9.35;6.25;;;;;;;;;;2580587;23;20734;-92
2023/09/13 05:37:21;;;;;;;12.63;6.55;;;;;;;;;;2580522;23;20008;-92
2023/09/13 05:38:22;;;;;;;9.18;5.63;;;;;;;;;;2568254;23;20012;-92
2023/09/13 05:39:22;;;;;;;8.15;6.45;;;;;;;;;;2568738;23;20450;-92
2023/09/13 05:40:23;;;;;;;10.88;6.38;;;;;;;;;;2568735;23;20001;-91
2023/09/13 05:41:24;;;;;;;9.43;5.68;;;;;;;;;;2581576;23;20087;-92
2023/09/13 05:42:25;;;;;;;11.27;6.70;;;;;;;;;;2568877;23;20066;-91
2023/09/13 05:43:28;;;;;;;9.38;6.20;;;;;;;;;;2584354;22;20193;-91
2023/09/13 05:44:30;;;;;;;9.15;5.38;;;;;;;;;;2597420;22;20000;-92
2023/09/13 05:45:31;;;;;;;8.75;6.10;;;;;;;;;;2597204;22;19999;-92
2023/09/13 05:46:31;;;;;;;8.75;6.68;;;;;;;;;;2581572;23;20086;-93
2023/09/13 05:47:32;;;;;;;11.85;7.28;;;;;;;;;;2583514;23;20016;-92
2023/09/13 05:48:34;;;;;;;8.18;5.65;;;;;;;;;;2581338;23;20458;-91
2023/09/13 05:49:34;;;;;;;12.45;6.82;;;;;;;;;;2583781;22;20278;-91
2023/09/13 05:50:35;;;;;;;14.50;7.05;;;;;;;;;;2581480;23;20012;-92
2023/09/13 05:51:35;;;;;;;10.55;5.55;;;;;;;;;;2568942;23;20001;-91
2023/09/13 05:52:39;;;;;;;12.63;7.68;;;;;;;;;;2568721;23;20011;-91
2023/09/13 05:53:39;;;;;;;16.50;7.40;;;;;;;;;;2569454;23;19996;-92
2023/09/13 05:54:39;;;;;;;11.30;6.68;;;;;;;;;;2568881;23;20004;-91
2023/09/13 05:55:40;;;;;;;15.60;7.38;;;;;;;;;;2583128;23;19996;-91
2023/09/13 05:56:41;;;;;;;14.23;7.00;;;;;;;;;;2581294;23;20356;-91
2023/09/13 05:57:41;;;;;;;13.82;6.93;;;;;;;;;;2568933;23;20374;-92
2023/09/13 05:58:43;;;;;;;12.13;7.43;;;;;;;;;;2568711;23;20095;-92
2023/09/13 05:59:43;;;;;;;16.13;7.00;;;;;;;;;;2583104;22;20052;-92
2023/09/13 06:00:48;;;;;;;8.80;5.95;;;;;;;;;;2596055;22;20008;-91
2023/09/13 06:01:49;;;;;;;14.73;6.85;;;;;;;;;;2594303;22;20007;-92
2023/09/13 06:02:49;;;;;;;10.50;6.53;;;;;;;;;;2580912;23;20012;-93
2023/09/13 06:03:49;;;;;;;12.43;6.32;;;;;;;;;;2581388;23;20516;-92
2023/09/13 06:04:50;;;;;;;12.50;5.88;;;;;;;;;;2581592;23;20000;-91
2023/09/13 06:05:51;;;;;;;8.75;5.90;;;;;;;;;;2581541;23;20006;-92
2023/09/13 06:06:51;;;;;;;8.80;5.53;;;;;;;;;;2582360;22;20027;-91
2023/09/13 06:07:51;;;;;;;8.45;5.25;;;;;;;;;;2593893;22;20012;-92
2023/09/13 06:08:52;;;;;;;8.10;5.25;;;;;;;;;;2581345;23;20473;-93
2023/09/13 06:09:52;;;;;;;7.32;4.40;;;;;;;;;;2581364;23;20007;-93